createdAt,value
2017-05-31T00:00:23.292Z,0
2017-05-31T00:01:23.261Z,0
2017-05-31T00:02:23.311Z,0
2017-05-31T00:03:23.607Z,0
2017-05-31T00:04:23.177Z,0
2017-05-31T00:05:23.473Z,0
2017-05-31T00:06:22.842Z,0
2017-05-31T00:07:23.142Z,0
2017-05-31T00:08:23.513Z,0
2017-05-31T00:09:23.151Z,0
2017-05-31T00:10:23.083Z,0
2017-05-31T00:11:22.775Z,0
2017-05-31T00:12:23.062Z,0
2017-05-31T00:13:23.052Z,0
2017-05-31T00:14:23.432Z,0
2017-05-31T00:15:23.342Z,0
2017-05-31T00:16:23.001Z,0
2017-05-31T00:17:23.032Z,0
2017-05-31T00:18:22.662Z,0
2017-05-31T00:19:22.942Z,0
2017-05-31T00:20:22.947Z,0
2017-05-31T00:21:22.305Z,0
2017-05-31T00:22:22.621Z,0
2017-05-31T00:23:23.213Z,0
2017-05-31T00:24:23.186Z,0
2017-05-31T00:25:22.872Z,0
2017-05-31T00:26:22.850Z,0
2017-05-31T00:27:22.906Z,0
2017-05-31T00:28:22.828Z,0
2017-05-31T00:29:22.204Z,0
2017-05-31T00:30:22.492Z,0
2017-05-31T00:31:23.111Z,0
2017-05-31T00:32:22.753Z,0
2017-05-31T00:33:22.754Z,0
2017-05-31T00:34:22.734Z,0
2017-05-31T00:35:22.765Z,0
2017-05-31T00:36:22.708Z,0
2017-05-31T00:37:23.003Z,0
2017-05-31T00:38:22.978Z,0
2017-05-31T00:39:22.655Z,0
2017-05-31T00:40:22.636Z,0
2017-05-31T00:41:22.641Z,0
2017-05-31T00:42:22.291Z,0
2017-05-31T00:43:22.912Z,0
2017-05-31T00:44:21.953Z,0
2017-05-31T00:45:22.890Z,0
2017-05-31T00:46:22.886Z,0
2017-05-31T00:47:22.542Z,0
2017-05-31T00:48:22.226Z,0
2017-05-31T00:49:22.822Z,0
2017-05-31T00:50:22.192Z,0
2017-05-31T00:51:22.796Z,0
2017-05-31T00:52:22.772Z,0
2017-05-31T00:53:21.841Z,0
2017-05-31T00:54:22.129Z,0
2017-05-31T00:55:22.431Z,0
2017-05-31T00:56:22.412Z,0
2017-05-31T00:57:22.703Z,0
2017-05-31T00:58:22.367Z,0
2017-05-31T00:59:22.045Z,0
2017-05-31T01:00:22.354Z,0
2017-05-31T01:01:22.015Z,0
2017-05-31T01:02:22.351Z,0
2017-05-31T01:03:21.982Z,0
2017-05-31T01:04:22.023Z,0
2017-05-31T01:05:21.974Z,0
2017-05-31T01:06:22.256Z,0
2017-05-31T01:07:21.929Z,0
2017-05-31T01:08:21.931Z,0
2017-05-31T01:09:22.203Z,0
2017-05-31T01:10:22.193Z,0
2017-05-31T01:11:22.482Z,0
2017-05-31T01:12:22.164Z,0
2017-05-31T01:13:22.464Z,0
2017-05-31T01:14:22.434Z,0
2017-05-31T01:15:22.120Z,0
2017-05-31T01:16:21.882Z,0
2017-05-31T01:17:22.083Z,0
2017-05-31T01:18:22.071Z,0
2017-05-31T01:19:22.364Z,0
2017-05-31T01:20:21.733Z,0
2017-05-31T01:21:22.047Z,0
2017-05-31T01:22:21.702Z,0
2017-05-31T01:23:21.983Z,0
2017-05-31T01:24:21.463Z,0
2017-05-31T01:25:21.958Z,0
2017-05-31T01:26:22.245Z,0
2017-05-31T01:27:21.943Z,0
2017-05-31T01:28:21.916Z,0
2017-05-31T01:29:21.703Z,0
2017-05-31T01:30:21.889Z,0
2017-05-31T01:31:21.873Z,0
2017-05-31T01:32:21.862Z,0
2017-05-31T01:33:21.594Z,0
2017-05-31T01:34:21.843Z,0
2017-05-31T01:35:21.835Z,0
2017-05-31T01:36:21.512Z,0
2017-05-31T01:37:21.922Z,0
2017-05-31T01:38:21.835Z,0
2017-05-31T01:39:21.754Z,0
2017-05-31T01:40:21.142Z,0
2017-05-31T01:41:21.837Z,0
2017-05-31T01:42:21.822Z,0
2017-05-31T01:43:22.074Z,0
2017-05-31T01:44:21.691Z,0
2017-05-31T01:45:22.042Z,0
2017-05-31T01:46:21.673Z,0
2017-05-31T01:47:21.344Z,0
2017-05-31T01:48:21.441Z,0
2017-05-31T01:49:21.919Z,0
2017-05-31T01:50:21.973Z,0
2017-05-31T01:51:21.649Z,0
2017-05-31T01:52:21.873Z,0
2017-05-31T01:53:21.873Z,0
2017-05-31T01:54:21.233Z,0
2017-05-31T01:55:21.841Z,0
2017-05-31T01:56:21.489Z,0
2017-05-31T01:57:21.853Z,0
2017-05-31T01:58:21.163Z,0
2017-05-31T01:59:21.553Z,0
2017-05-31T02:00:20.813Z,0
2017-05-31T02:01:21.716Z,0
2017-05-31T02:02:21.715Z,0
2017-05-31T02:03:21.693Z,0
2017-05-31T02:04:21.742Z,0
2017-05-31T02:05:21.692Z,0
2017-05-31T02:06:21.693Z,0
2017-05-31T02:07:21.322Z,0
2017-05-31T02:08:21.683Z,0
2017-05-31T02:09:21.647Z,0
2017-05-31T02:10:21.281Z,0
2017-05-31T02:11:20.981Z,0
2017-05-31T02:12:21.250Z,0
2017-05-31T02:13:21.283Z,0
2017-05-31T02:14:20.912Z,0
2017-05-31T02:15:21.203Z,0
2017-05-31T02:16:21.502Z,0
2017-05-31T02:17:20.854Z,0
2017-05-31T02:18:21.554Z,0
2017-05-31T02:19:21.450Z,0
2017-05-31T02:20:20.883Z,0
2017-05-31T02:21:21.400Z,0
2017-05-31T02:22:20.792Z,0
2017-05-31T02:23:25.409Z,0
2017-05-31T02:24:20.753Z,0
2017-05-31T02:25:21.356Z,0
2017-05-31T02:26:20.827Z,0
2017-05-31T02:27:21.322Z,0
2017-05-31T02:28:21.308Z,0
2017-05-31T02:29:21.303Z,0
2017-05-31T02:30:21.293Z,0
2017-05-31T02:31:21.265Z,0
2017-05-31T02:32:20.954Z,0
2017-05-31T02:33:21.262Z,0
2017-05-31T02:34:20.892Z,0
2017-05-31T02:35:20.891Z,0
2017-05-31T02:36:20.563Z,0
2017-05-31T02:37:20.867Z,0
2017-05-31T02:38:20.525Z,4
2017-05-31T02:39:21.198Z,4
2017-05-31T02:40:21.111Z,4
2017-05-31T02:41:20.801Z,0
2017-05-31T02:42:20.801Z,0
2017-05-31T02:43:20.761Z,4
2017-05-31T02:44:20.448Z,4
2017-05-31T02:45:20.735Z,0
2017-05-31T02:46:20.710Z,4
2017-05-31T02:47:20.695Z,4
2017-05-31T02:48:20.983Z,4
2017-05-31T02:49:20.671Z,4
2017-05-31T02:50:20.653Z,4
2017-05-31T02:51:20.667Z,8
2017-05-31T02:52:20.925Z,4
2017-05-31T02:53:20.300Z,4
2017-05-31T02:54:20.602Z,8
2017-05-31T02:55:20.887Z,8
2017-05-31T02:56:20.564Z,8
2017-05-31T02:57:20.842Z,8
2017-05-31T02:58:20.530Z,12
2017-05-31T02:59:20.545Z,12
2017-05-31T03:00:20.199Z,12
2017-05-31T03:01:20.842Z,12
2017-05-31T03:02:20.451Z,16
2017-05-31T03:03:20.443Z,20
2017-05-31T03:04:20.442Z,20
2017-05-31T03:05:20.722Z,24
2017-05-31T03:06:20.421Z,24
2017-05-31T03:07:20.481Z,28
2017-05-31T03:08:20.369Z,32
2017-05-31T03:09:20.672Z,32
2017-05-31T03:10:20.642Z,36
2017-05-31T03:11:20.331Z,40
2017-05-31T03:12:20.617Z,48
2017-05-31T03:13:20.612Z,52
2017-05-31T03:14:20.586Z,64
2017-05-31T03:15:20.072Z,64
2017-05-31T03:16:20.555Z,76
2017-05-31T03:17:20.222Z,80
2017-05-31T03:18:20.526Z,88
2017-05-31T03:19:19.890Z,96
2017-05-31T03:20:20.480Z,100
2017-05-31T03:21:19.562Z,112
2017-05-31T03:22:20.460Z,120
2017-05-31T03:23:19.898Z,128
2017-05-31T03:24:20.138Z,140
2017-05-31T03:25:20.102Z,148
2017-05-31T03:26:20.090Z,160
2017-05-31T03:27:19.922Z,168
2017-05-31T03:28:20.059Z,180
2017-05-31T03:29:20.090Z,188
2017-05-31T03:30:20.120Z,200
2017-05-31T03:31:19.688Z,208
2017-05-31T03:32:20.303Z,216
2017-05-31T03:33:19.452Z,228
2017-05-31T03:34:20.269Z,240
2017-05-31T03:35:20.008Z,248
2017-05-31T03:36:19.930Z,260
2017-05-31T03:37:19.700Z,272
2017-05-31T03:38:20.211Z,280
2017-05-31T03:39:19.931Z,288
2017-05-31T03:40:20.197Z,296
2017-05-31T03:41:19.540Z,308
2017-05-31T03:42:19.519Z,316
2017-05-31T03:43:20.117Z,332
2017-05-31T03:44:20.109Z,340
2017-05-31T03:45:19.478Z,352
2017-05-31T03:46:20.085Z,360
2017-05-31T03:47:20.069Z,372
2017-05-31T03:48:19.440Z,388
2017-05-31T03:49:19.420Z,400
2017-05-31T03:50:19.768Z,412
2017-05-31T03:51:19.379Z,424
2017-05-31T03:52:19.780Z,436
2017-05-31T03:53:19.359Z,448
2017-05-31T03:54:20.062Z,452
2017-05-31T03:55:19.330Z,468
2017-05-31T03:56:19.950Z,480
2017-05-31T03:57:19.597Z,492
2017-05-31T03:58:19.592Z,500
2017-05-31T03:59:20.027Z,512
2017-05-31T04:00:19.643Z,528
2017-05-31T04:01:19.540Z,552
2017-05-31T04:02:19.834Z,564
2017-05-31T04:03:19.577Z,584
2017-05-31T04:04:19.868Z,608
2017-05-31T04:05:19.528Z,636
2017-05-31T04:06:19.452Z,652
2017-05-31T04:07:19.141Z,664
2017-05-31T04:08:19.432Z,672
2017-05-31T04:09:19.731Z,676
2017-05-31T04:10:19.762Z,672
2017-05-31T04:11:19.680Z,680
2017-05-31T04:12:19.359Z,692
2017-05-31T04:13:19.411Z,708
2017-05-31T04:14:19.382Z,732
2017-05-31T04:15:19.639Z,756
2017-05-31T04:16:19.317Z,780
2017-05-31T04:17:19.595Z,808
2017-05-31T04:18:19.587Z,836
2017-05-31T04:19:19.647Z,868
2017-05-31T04:20:19.233Z,900
2017-05-31T04:21:19.538Z,936
2017-05-31T04:22:19.579Z,980
2017-05-31T04:23:19.508Z,1028
2017-05-31T04:24:19.585Z,1068
2017-05-31T04:25:19.461Z,1112
2017-05-31T04:26:19.154Z,1144
2017-05-31T04:27:19.871Z,1184
2017-05-31T04:28:19.122Z,1220
2017-05-31T04:29:19.411Z,1252
2017-05-31T04:30:19.400Z,1304
2017-05-31T04:31:18.753Z,1344
2017-05-31T04:32:19.054Z,1392
2017-05-31T04:33:19.106Z,1432
2017-05-31T04:34:19.450Z,1460
2017-05-31T04:35:18.712Z,1480
2017-05-31T04:36:18.999Z,1488
2017-05-31T04:37:19.400Z,1496
2017-05-31T04:38:19.291Z,1504
2017-05-31T04:39:19.250Z,1508
2017-05-31T04:40:18.632Z,1520
2017-05-31T04:41:19.260Z,1552
2017-05-31T04:42:19.261Z,1592
2017-05-31T04:43:18.888Z,1660
2017-05-31T04:44:18.870Z,1696
2017-05-31T04:45:18.850Z,1720
2017-05-31T04:46:19.141Z,1740
2017-05-31T04:47:18.820Z,1752
2017-05-31T04:48:18.502Z,1772
2017-05-31T04:49:18.781Z,1784
2017-05-31T04:50:18.761Z,1804
2017-05-31T04:51:18.756Z,1824
2017-05-31T04:52:18.740Z,1840
2017-05-31T04:53:19.041Z,1864
2017-05-31T04:54:18.721Z,1884
2017-05-31T04:55:18.390Z,1904
2017-05-31T04:56:18.679Z,1932
2017-05-31T04:57:18.662Z,1948
2017-05-31T04:58:18.665Z,1916
2017-05-31T04:59:18.952Z,2000
2017-05-31T05:00:18.989Z,2044
2017-05-31T05:01:18.918Z,2076
2017-05-31T05:02:18.289Z,2108
2017-05-31T05:03:18.895Z,2136
2017-05-31T05:04:18.250Z,2160
2017-05-31T05:05:18.253Z,2204
2017-05-31T05:06:18.860Z,2284
2017-05-31T05:07:18.811Z,2500
2017-05-31T05:08:18.810Z,2772
2017-05-31T05:09:18.799Z,3008
2017-05-31T05:10:18.775Z,3084
2017-05-31T05:11:18.451Z,3096
2017-05-31T05:12:18.436Z,3032
2017-05-31T05:13:18.121Z,2804
2017-05-31T05:14:18.413Z,2572
2017-05-31T05:15:18.699Z,2380
2017-05-31T05:16:18.170Z,2200
2017-05-31T05:17:18.645Z,2156
2017-05-31T05:18:18.664Z,2144
2017-05-31T05:19:18.319Z,2164
2017-05-31T05:20:18.031Z,2420
2017-05-31T05:21:17.998Z,2384
2017-05-31T05:22:18.056Z,2500
2017-05-31T05:23:18.580Z,2568
2017-05-31T05:24:18.030Z,2604
2017-05-31T05:25:18.530Z,2728
2017-05-31T05:26:17.976Z,2772
2017-05-31T05:27:17.904Z,2824
2017-05-31T05:28:18.189Z,2884
2017-05-31T05:29:18.171Z,2928
2017-05-31T05:30:18.464Z,2944
2017-05-31T05:31:18.211Z,3140
2017-05-31T05:32:17.831Z,3448
2017-05-31T05:33:18.416Z,3772
2017-05-31T05:34:17.782Z,4064
2017-05-31T05:35:18.380Z,4272
2017-05-31T05:36:17.811Z,4236
2017-05-31T05:37:18.063Z,4196
2017-05-31T05:38:18.339Z,4048
2017-05-31T05:39:18.139Z,3820
2017-05-31T05:40:18.310Z,3684
2017-05-31T05:41:17.992Z,3668
2017-05-31T05:42:18.010Z,4016
2017-05-31T05:43:17.670Z,3988
2017-05-31T05:44:18.259Z,4340
2017-05-31T05:45:18.218Z,4820
2017-05-31T05:46:18.221Z,5028
2017-05-31T05:47:17.919Z,5164
2017-05-31T05:48:17.888Z,5088
2017-05-31T05:49:18.310Z,5088
2017-05-31T05:50:17.554Z,4848
2017-05-31T05:51:17.880Z,4404
2017-05-31T05:52:18.140Z,4488
2017-05-31T05:53:17.845Z,4512
2017-05-31T05:54:17.511Z,4732
2017-05-31T05:55:17.579Z,4756
2017-05-31T05:56:17.476Z,4620
2017-05-31T05:57:18.060Z,4448
2017-05-31T05:58:17.498Z,4264
2017-05-31T05:59:18.062Z,4232
2017-05-31T06:00:17.740Z,4196
2017-05-31T06:01:17.771Z,4172
2017-05-31T06:02:17.719Z,4212
2017-05-31T06:03:17.999Z,4288
2017-05-31T06:04:17.661Z,4336
2017-05-31T06:05:17.995Z,4384
2017-05-31T06:06:17.322Z,4460
2017-05-31T06:07:17.622Z,4584
2017-05-31T06:08:17.722Z,4852
2017-05-31T06:09:17.592Z,5132
2017-05-31T06:10:17.274Z,5236
2017-05-31T06:11:17.254Z,5116
2017-05-31T06:12:17.853Z,5412
2017-05-31T06:13:17.950Z,5852
2017-05-31T06:14:17.861Z,6472
2017-05-31T06:15:17.904Z,6768
2017-05-31T06:16:17.174Z,6576
2017-05-31T06:17:17.503Z,6228
2017-05-31T06:18:17.798Z,6048
2017-05-31T06:19:17.182Z,5868
2017-05-31T06:20:17.414Z,5824
2017-05-31T06:21:17.731Z,5796
2017-05-31T06:22:17.093Z,5884
2017-05-31T06:23:17.722Z,6132
2017-05-31T06:24:17.739Z,5936
2017-05-31T06:25:17.055Z,5764
2017-05-31T06:26:17.654Z,6296
2017-05-31T06:27:17.341Z,6436
2017-05-31T06:28:17.629Z,6408
2017-05-31T06:29:17.664Z,6332
2017-05-31T06:30:17.293Z,6220
2017-05-31T06:31:16.964Z,6172
2017-05-31T06:32:17.613Z,6152
2017-05-31T06:33:16.633Z,6152
2017-05-31T06:34:17.611Z,6084
2017-05-31T06:35:17.664Z,5992
2017-05-31T06:36:17.215Z,5896
2017-05-31T06:37:17.519Z,5804
2017-05-31T06:38:17.524Z,5728
2017-05-31T06:39:17.484Z,5656
2017-05-31T06:40:17.160Z,5668
2017-05-31T06:41:17.493Z,5724
2017-05-31T06:42:17.125Z,5692
2017-05-31T06:43:17.124Z,5740
2017-05-31T06:44:17.104Z,5724
2017-05-31T06:45:17.097Z,5760
2017-05-31T06:46:17.374Z,5744
2017-05-31T06:47:16.767Z,5748
2017-05-31T06:48:17.044Z,5776
2017-05-31T06:49:16.727Z,5860
2017-05-31T06:50:17.323Z,5924
2017-05-31T06:51:17.008Z,6020
2017-05-31T06:52:16.681Z,5916
2017-05-31T06:53:16.972Z,5888
2017-05-31T06:54:16.965Z,5812
2017-05-31T06:55:16.654Z,5892
2017-05-31T06:56:16.922Z,6028
2017-05-31T06:57:16.602Z,6100
2017-05-31T06:58:16.612Z,6184
2017-05-31T06:59:16.897Z,6188
2017-05-31T07:00:16.879Z,6208
2017-05-31T07:01:16.896Z,6152
2017-05-31T07:02:17.164Z,6240
2017-05-31T07:03:17.140Z,6664
2017-05-31T07:04:17.141Z,6740
2017-05-31T07:05:17.144Z,7208
2017-05-31T07:06:17.098Z,7320
2017-05-31T07:07:17.097Z,7112
2017-05-31T07:08:17.092Z,6268
2017-05-31T07:09:16.749Z,6520
2017-05-31T07:10:17.055Z,6672
2017-05-31T07:11:16.751Z,6644
2017-05-31T07:12:16.726Z,6028
2017-05-31T07:13:17.012Z,6556
2017-05-31T07:14:16.401Z,6900
2017-05-31T07:15:16.995Z,7076
2017-05-31T07:16:16.682Z,8072
2017-05-31T07:17:16.978Z,7944
2017-05-31T07:18:16.976Z,7816
2017-05-31T07:19:16.953Z,7556
2017-05-31T07:20:16.657Z,7432
2017-05-31T07:21:16.621Z,6988
2017-05-31T07:22:16.938Z,6956
2017-05-31T07:23:16.680Z,7204
2017-05-31T07:24:16.893Z,7608
2017-05-31T07:25:16.275Z,8388
2017-05-31T07:26:16.867Z,8492
2017-05-31T07:27:16.874Z,8592
2017-05-31T07:28:16.523Z,8448
2017-05-31T07:29:16.852Z,7640
2017-05-31T07:30:16.861Z,7112
2017-05-31T07:31:16.793Z,7752
2017-05-31T07:32:16.790Z,7608
2017-05-31T07:33:16.850Z,7112
2017-05-31T07:34:16.151Z,8052
2017-05-31T07:35:16.251Z,8704
2017-05-31T07:36:16.443Z,8756
2017-05-31T07:37:16.423Z,8752
2017-05-31T07:38:15.903Z,9568
2017-05-31T07:39:16.708Z,9296
2017-05-31T07:40:16.095Z,9668
2017-05-31T07:41:16.428Z,7892
2017-05-31T07:42:16.458Z,6772
2017-05-31T07:43:16.692Z,8372
2017-05-31T07:44:16.035Z,9032
2017-05-31T07:45:16.424Z,8736
2017-05-31T07:46:16.614Z,7760
2017-05-31T07:47:16.306Z,9264
2017-05-31T07:48:15.990Z,8940
2017-05-31T07:49:15.968Z,8040
2017-05-31T07:50:16.290Z,8352
2017-05-31T07:51:16.561Z,8644
2017-05-31T07:52:16.291Z,9924
2017-05-31T07:53:16.229Z,9884
2017-05-31T07:54:15.929Z,9820
2017-05-31T07:55:16.513Z,9792
2017-05-31T07:56:16.205Z,9664
2017-05-31T07:57:16.190Z,9660
2017-05-31T07:58:16.182Z,8320
2017-05-31T07:59:16.462Z,8232
2017-05-31T08:00:16.169Z,9600
2017-05-31T08:01:16.207Z,9572
2017-05-31T08:02:16.423Z,10060
2017-05-31T08:03:16.136Z,10044
2017-05-31T08:04:16.205Z,9516
2017-05-31T08:05:16.191Z,9292
2017-05-31T08:06:15.791Z,10124
2017-05-31T08:07:16.144Z,9852
2017-05-31T08:08:16.061Z,7776
2017-05-31T08:09:15.852Z,7476
2017-05-31T08:10:16.041Z,7816
2017-05-31T08:11:16.033Z,8328
2017-05-31T08:12:16.135Z,10448
2017-05-31T08:13:16.321Z,10744
2017-05-31T08:14:16.033Z,10892
2017-05-31T08:15:16.303Z,7556
2017-05-31T08:16:15.661Z,9032
2017-05-31T08:17:16.018Z,9700
2017-05-31T08:18:15.343Z,9980
2017-05-31T08:19:16.260Z,10772
2017-05-31T08:20:16.234Z,10884
2017-05-31T08:21:15.637Z,10364
2017-05-31T08:22:15.999Z,8208
2017-05-31T08:23:15.913Z,7012
2017-05-31T08:24:15.985Z,9624
2017-05-31T08:25:15.591Z,11516
2017-05-31T08:26:16.056Z,9360
2017-05-31T08:27:15.353Z,10960
2017-05-31T08:28:15.602Z,11944
2017-05-31T08:29:16.235Z,12848
2017-05-31T08:30:15.525Z,13548
2017-05-31T08:31:16.244Z,14164
2017-05-31T08:32:15.514Z,13012
2017-05-31T08:33:15.912Z,10684
2017-05-31T08:34:15.786Z,8908
2017-05-31T08:35:15.811Z,6976
2017-05-31T08:36:15.771Z,5920
2017-05-31T08:37:15.787Z,5200
2017-05-31T08:38:16.072Z,4928
2017-05-31T08:39:15.824Z,4868
2017-05-31T08:40:15.854Z,5252
2017-05-31T08:41:15.834Z,9116
2017-05-31T08:42:16.089Z,10140
2017-05-31T08:43:15.817Z,10372
2017-05-31T08:44:15.734Z,10888
2017-05-31T08:45:15.728Z,11324
2017-05-31T08:46:15.702Z,10736
2017-05-31T08:47:15.972Z,8976
2017-05-31T08:48:15.642Z,10688
2017-05-31T08:49:15.652Z,10724
2017-05-31T08:50:15.015Z,9556
2017-05-31T08:51:15.314Z,12600
2017-05-31T08:52:15.961Z,14808
2017-05-31T08:53:15.894Z,21472
2017-05-31T08:54:15.292Z,29760
2017-05-31T08:55:15.893Z,40544
2017-05-31T08:56:15.713Z,52768
2017-05-31T08:57:15.945Z,61760
2017-05-31T08:58:15.856Z,76864
2017-05-31T08:59:15.232Z,12988
2017-05-31T09:00:15.535Z,10568
2017-05-31T09:01:15.826Z,7136
2017-05-31T09:02:15.844Z,6460
2017-05-31T09:03:15.530Z,6132
2017-05-31T09:04:15.536Z,6472
2017-05-31T09:05:15.781Z,10332
2017-05-31T09:06:15.781Z,9652
2017-05-31T09:07:15.582Z,6768
2017-05-31T09:08:14.832Z,25152
2017-05-31T09:09:15.753Z,70784
2017-05-31T09:10:15.175Z,64448
2017-05-31T09:11:15.743Z,7660
2017-05-31T09:12:15.731Z,44640
2017-05-31T09:13:15.461Z,6284
2017-05-31T09:14:15.201Z,5540
2017-05-31T09:15:15.084Z,4912
2017-05-31T09:16:15.450Z,4672
2017-05-31T09:17:15.084Z,6324
2017-05-31T09:18:15.368Z,6344
2017-05-31T09:19:15.051Z,6104
2017-05-31T09:20:15.668Z,5892
2017-05-31T09:21:15.416Z,6048
2017-05-31T09:22:15.648Z,6280
2017-05-31T09:23:14.728Z,6776
2017-05-31T09:24:15.312Z,6144
2017-05-31T09:25:14.980Z,5512
2017-05-31T09:26:14.998Z,5424
2017-05-31T09:27:15.284Z,6880
2017-05-31T09:28:14.663Z,49408
2017-05-31T09:29:15.582Z,7684
2017-05-31T09:30:14.643Z,7140
2017-05-31T09:31:15.573Z,6300
2017-05-31T09:32:15.260Z,6104
2017-05-31T09:33:15.281Z,6100
2017-05-31T09:34:15.211Z,5880
2017-05-31T09:35:15.223Z,5648
2017-05-31T09:36:15.184Z,5416
2017-05-31T09:37:15.542Z,5260
2017-05-31T09:38:15.171Z,5380
2017-05-31T09:39:14.847Z,60736
2017-05-31T09:40:15.460Z,61376
2017-05-31T09:41:15.454Z,62592
2017-05-31T09:42:15.436Z,60320
2017-05-31T09:43:14.820Z,53792
2017-05-31T09:44:14.815Z,34368
2017-05-31T09:45:15.411Z,11008
2017-05-31T09:46:15.426Z,11000
2017-05-31T09:47:15.097Z,11288
2017-05-31T09:48:15.093Z,14268
2017-05-31T09:49:15.370Z,60096
2017-05-31T09:50:15.392Z,32512
2017-05-31T09:51:15.380Z,15376
2017-05-31T09:52:15.350Z,11488
2017-05-31T09:53:14.750Z,10052
2017-05-31T09:54:14.709Z,7968
2017-05-31T09:55:14.708Z,6468
2017-05-31T09:56:14.403Z,5596
2017-05-31T09:57:14.774Z,4792
2017-05-31T09:58:14.708Z,4112
2017-05-31T09:59:14.692Z,3680
2017-05-31T10:00:15.330Z,3612
2017-05-31T10:01:14.679Z,8608
2017-05-31T10:02:14.678Z,6452
2017-05-31T10:03:14.654Z,31552
2017-05-31T10:04:14.958Z,49600
2017-05-31T10:05:14.930Z,24992
2017-05-31T10:06:14.610Z,15092
2017-05-31T10:07:14.932Z,10180
2017-05-31T10:08:14.609Z,51072
2017-05-31T10:09:14.896Z,28928
2017-05-31T10:10:14.302Z,47680
2017-05-31T10:11:14.886Z,45696
2017-05-31T10:12:15.243Z,15648
2017-05-31T10:13:14.889Z,9088
2017-05-31T10:14:14.919Z,7492
2017-05-31T10:15:14.858Z,6124
2017-05-31T10:16:14.881Z,5360
2017-05-31T10:17:14.849Z,4912
2017-05-31T10:18:14.848Z,4512
2017-05-31T10:19:14.825Z,4452
2017-05-31T10:20:14.829Z,5196
2017-05-31T10:21:14.820Z,6312
2017-05-31T10:22:14.798Z,7092
2017-05-31T10:23:14.489Z,7644
2017-05-31T10:24:14.489Z,12588
2017-05-31T10:25:15.086Z,13108
2017-05-31T10:26:15.069Z,13360
2017-05-31T10:27:14.761Z,11356
2017-05-31T10:28:14.748Z,13724
2017-05-31T10:29:14.737Z,13212
2017-05-31T10:30:14.733Z,9500
2017-05-31T10:31:14.460Z,8524
2017-05-31T10:32:14.427Z,7940
2017-05-31T10:33:14.729Z,8816
2017-05-31T10:34:14.731Z,12484
2017-05-31T10:35:15.000Z,12352
2017-05-31T10:36:14.686Z,11156
2017-05-31T10:37:14.708Z,11984
2017-05-31T10:38:14.680Z,8724
2017-05-31T10:39:14.660Z,12168
2017-05-31T10:40:14.951Z,12140
2017-05-31T10:41:14.339Z,11868
2017-05-31T10:42:14.688Z,11336
2017-05-31T10:43:14.640Z,8396
2017-05-31T10:44:14.618Z,11248
2017-05-31T10:45:14.310Z,11268
2017-05-31T10:46:14.600Z,10768
2017-05-31T10:47:14.610Z,10528
2017-05-31T10:48:14.614Z,9660
2017-05-31T10:49:14.911Z,6412
2017-05-31T10:50:14.580Z,5204
2017-05-31T10:51:14.919Z,4340
2017-05-31T10:52:14.561Z,3740
2017-05-31T10:53:14.929Z,3252
2017-05-31T10:54:14.580Z,2860
2017-05-31T10:55:14.943Z,2580
2017-05-31T10:56:14.535Z,2336
2017-05-31T10:57:14.583Z,2060
2017-05-31T10:58:14.200Z,1924
2017-05-31T10:59:14.506Z,1812
2017-05-31T11:00:14.852Z,1792
2017-05-31T11:01:14.545Z,1844
2017-05-31T11:02:14.806Z,1912
2017-05-31T11:03:14.769Z,2028
2017-05-31T11:04:14.473Z,2200
2017-05-31T11:05:14.452Z,2396
2017-05-31T11:06:14.760Z,2628
2017-05-31T11:07:14.733Z,2924
2017-05-31T11:08:14.739Z,3312
2017-05-31T11:09:14.726Z,3772
2017-05-31T11:10:14.711Z,4228
2017-05-31T11:11:14.721Z,5372
2017-05-31T11:12:14.711Z,5864
2017-05-31T11:13:14.371Z,6612
2017-05-31T11:14:14.681Z,9900
2017-05-31T11:15:14.052Z,10668
2017-05-31T11:16:14.337Z,11220
2017-05-31T11:17:14.650Z,11340
2017-05-31T11:18:14.324Z,10988
2017-05-31T11:19:14.642Z,10512
2017-05-31T11:20:14.621Z,10076
2017-05-31T11:21:14.641Z,9640
2017-05-31T11:22:14.309Z,9412
2017-05-31T11:23:14.002Z,9160
2017-05-31T11:24:14.583Z,8984
2017-05-31T11:25:14.271Z,8932
2017-05-31T11:26:14.567Z,8760
2017-05-31T11:27:14.562Z,8684
2017-05-31T11:28:13.930Z,8764
2017-05-31T11:29:14.255Z,8680
2017-05-31T11:30:14.545Z,8612
2017-05-31T11:31:14.034Z,8668
2017-05-31T11:32:14.225Z,8360
2017-05-31T11:33:14.531Z,8424
2017-05-31T11:34:14.524Z,8528
2017-05-31T11:35:14.591Z,8732
2017-05-31T11:36:14.240Z,8788
2017-05-31T11:37:14.492Z,8728
2017-05-31T11:38:14.526Z,8820
2017-05-31T11:39:14.147Z,8748
2017-05-31T11:40:14.472Z,5668
2017-05-31T11:41:14.152Z,5912
2017-05-31T11:42:14.444Z,5912
2017-05-31T11:43:14.130Z,8344
2017-05-31T11:44:14.129Z,9532
2017-05-31T11:45:14.594Z,6764
2017-05-31T11:46:14.120Z,6680
2017-05-31T11:47:14.408Z,6672
2017-05-31T11:48:14.082Z,6788
2017-05-31T11:49:14.078Z,9784
2017-05-31T11:50:14.078Z,7908
2017-05-31T11:51:14.386Z,7372
2017-05-31T11:52:13.861Z,6960
2017-05-31T11:53:14.352Z,6940
2017-05-31T11:54:14.042Z,7116
2017-05-31T11:55:14.021Z,7284
2017-05-31T11:56:13.714Z,10068
2017-05-31T11:57:14.015Z,10424
2017-05-31T11:58:14.302Z,10520
2017-05-31T11:59:13.994Z,10692
2017-05-31T12:00:14.270Z,10972
2017-05-31T12:01:14.112Z,10752
2017-05-31T12:02:14.074Z,10696
2017-05-31T12:03:14.280Z,10888
2017-05-31T12:04:14.246Z,8008
2017-05-31T12:05:13.334Z,7396
2017-05-31T12:06:14.051Z,6784
2017-05-31T12:07:14.240Z,6504
2017-05-31T12:08:14.225Z,6312
2017-05-31T12:09:14.204Z,6100
2017-05-31T12:10:14.198Z,5564
2017-05-31T12:11:13.885Z,5040
2017-05-31T12:12:13.901Z,4476
2017-05-31T12:13:14.002Z,4048
2017-05-31T12:14:13.969Z,3612
2017-05-31T12:15:13.542Z,3160
2017-05-31T12:16:14.185Z,2768
2017-05-31T12:17:14.270Z,2432
2017-05-31T12:18:14.159Z,2200
2017-05-31T12:19:13.825Z,2016
2017-05-31T12:20:13.596Z,1820
2017-05-31T12:21:14.191Z,1600
2017-05-31T12:22:14.101Z,1408
2017-05-31T12:23:13.788Z,1280
2017-05-31T12:24:13.804Z,1164
2017-05-31T12:25:13.806Z,1076
2017-05-31T12:26:13.871Z,996
2017-05-31T12:27:13.753Z,924
2017-05-31T12:28:13.489Z,864
2017-05-31T12:29:13.715Z,812
2017-05-31T12:30:13.431Z,768
2017-05-31T12:31:13.478Z,736
2017-05-31T12:32:14.015Z,724
2017-05-31T12:33:13.703Z,716
2017-05-31T12:34:13.683Z,716
2017-05-31T12:35:14.034Z,704
2017-05-31T12:36:13.057Z,668
2017-05-31T12:37:13.650Z,636
2017-05-31T12:38:13.946Z,624
2017-05-31T12:39:13.951Z,648
2017-05-31T12:40:13.951Z,668
2017-05-31T12:41:13.929Z,672
2017-05-31T12:42:13.611Z,676
2017-05-31T12:43:13.658Z,672
2017-05-31T12:44:13.891Z,672
2017-05-31T12:45:13.300Z,672
2017-05-31T12:46:13.874Z,664
2017-05-31T12:47:13.542Z,688
2017-05-31T12:48:13.842Z,724
2017-05-31T12:49:13.841Z,776
2017-05-31T12:50:13.574Z,800
2017-05-31T12:51:13.522Z,812
2017-05-31T12:52:13.801Z,820
2017-05-31T12:53:13.790Z,836
2017-05-31T12:54:13.470Z,868
2017-05-31T12:55:13.784Z,896
2017-05-31T12:56:13.453Z,940
2017-05-31T12:57:13.748Z,1004
2017-05-31T12:58:13.737Z,1052
2017-05-31T12:59:13.119Z,1104
2017-05-31T13:00:13.742Z,1136
2017-05-31T13:01:13.401Z,1172
2017-05-31T13:02:13.502Z,1236
2017-05-31T13:03:13.400Z,1320
2017-05-31T13:04:13.373Z,1384
2017-05-31T13:05:13.364Z,1424
2017-05-31T13:06:13.342Z,1496
2017-05-31T13:07:13.363Z,1596
2017-05-31T13:08:13.632Z,1688
2017-05-31T13:09:13.020Z,1828
2017-05-31T13:10:12.990Z,1972
2017-05-31T13:11:13.605Z,2132
2017-05-31T13:12:13.338Z,2296
2017-05-31T13:13:13.270Z,2488
2017-05-31T13:14:13.250Z,2712
2017-05-31T13:15:13.238Z,3028
2017-05-31T13:16:13.285Z,3360
2017-05-31T13:17:12.909Z,3680
2017-05-31T13:18:13.561Z,4056
2017-05-31T13:19:13.199Z,4488
2017-05-31T13:20:13.504Z,5040
2017-05-31T13:21:13.190Z,5568
2017-05-31T13:22:13.180Z,6088
2017-05-31T13:23:13.197Z,6224
2017-05-31T13:24:13.136Z,6280
2017-05-31T13:25:12.819Z,6384
2017-05-31T13:26:12.840Z,5720
2017-05-31T13:27:13.110Z,5468
2017-05-31T13:28:12.868Z,5232
2017-05-31T13:29:13.085Z,5124
2017-05-31T13:30:13.417Z,4916
2017-05-31T13:31:13.399Z,4660
2017-05-31T13:32:12.770Z,4572
2017-05-31T13:33:13.075Z,4572
2017-05-31T13:34:13.351Z,4380
2017-05-31T13:35:13.369Z,4084
2017-05-31T13:36:13.340Z,3760
2017-05-31T13:37:13.012Z,3520